sensor_id;sensor_type;location;lat;lon;timestamp;P1;durP1;ratioP1;P2;durP2;ratioP2
24715;SDS011;12822;50.124;8.678;2023-05-20T00:00:35;4.55;;;2.63;;
24715;SDS011;12822;50.124;8.678;2023-05-20T00:03:01;4.05;;;2.60;;
24715;SDS011;12822;50.124;8.678;2023-05-20T00:05:27;4.85;;;2.45;;
24715;SDS011;12822;50.124;8.678;2023-05-20T00:07:53;4.35;;;2.70;;
24715;SDS011;12822;50.124;8.678;2023-05-20T00:10:19;5.93;;;2.47;;
24715;SDS011;12822;50.124;8.678;2023-05-20T00:12:45;6.18;;;2.72;;
24715;SDS011;12822;50.124;8.678;2023-05-20T00:15:11;5.57;;;2.50;;
24715;SDS011;12822;50.124;8.678;2023-05-20T00:17:37;5.15;;;2.42;;
24715;SDS011;12822;50.124;8.678;2023-05-20T00:20:03;3.78;;;2.28;;
24715;SDS011;12822;50.124;8.678;2023-05-20T00:22:30;6.20;;;2.88;;
24715;SDS011;12822;50.124;8.678;2023-05-20T00:24:56;4.95;;;2.88;;
24715;SDS011;12822;50.124;8.678;2023-05-20T00:27:22;8.85;;;2.55;;
24715;SDS011;12822;50.124;8.678;2023-05-20T00:29:48;3.95;;;2.33;;
24715;SDS011;12822;50.124;8.678;2023-05-20T00:32:14;7.55;;;3.05;;
24715;SDS011;12822;50.124;8.678;2023-05-20T00:34:41;6.63;;;2.28;;
24715;SDS011;12822;50.124;8.678;2023-05-20T00:37:08;12.55;;;2.50;;
24715;SDS011;12822;50.124;8.678;2023-05-20T00:39:34;3.08;;;2.17;;
24715;SDS011;12822;50.124;8.678;2023-05-20T00:42:00;7.68;;;2.70;;
24715;SDS011;12822;50.124;8.678;2023-05-20T00:44:27;6.05;;;2.50;;
24715;SDS011;12822;50.124;8.678;2023-05-20T00:46:53;9.05;;;2.90;;
24715;SDS011;12822;50.124;8.678;2023-05-20T00:49:20;7.03;;;2.40;;
24715;SDS011;12822;50.124;8.678;2023-05-20T00:51:47;4.65;;;2.50;;
24715;SDS011;12822;50.124;8.678;2023-05-20T00:54:13;5.38;;;2.60;;
24715;SDS011;12822;50.124;8.678;2023-05-20T00:56:39;5.80;;;3.20;;
24715;SDS011;12822;50.124;8.678;2023-05-20T00:59:05;7.38;;;3.00;;
24715;SDS011;12822;50.124;8.678;2023-05-20T01:01:31;5.22;;;2.60;;
24715;SDS011;12822;50.124;8.678;2023-05-20T01:03:58;3.30;;;2.38;;
24715;SDS011;12822;50.124;8.678;2023-05-20T01:06:24;4.72;;;2.92;;
24715;SDS011;12822;50.124;8.678;2023-05-20T01:08:50;6.57;;;2.55;;
24715;SDS011;12822;50.124;8.678;2023-05-20T01:11:19;7.45;;;2.47;;
24715;SDS011;12822;50.124;8.678;2023-05-20T01:13:50;4.95;;;2.72;;
24715;SDS011;12822;50.124;8.678;2023-05-20T01:16:17;7.63;;;2.90;;
24715;SDS011;12822;50.124;8.678;2023-05-20T01:18:43;6.50;;;3.08;;
24715;SDS011;12822;50.124;8.678;2023-05-20T01:21:12;4.07;;;2.40;;
24715;SDS011;12822;50.124;8.678;2023-05-20T01:23:39;7.07;;;2.58;;
24715;SDS011;12822;50.124;8.678;2023-05-20T01:26:05;5.57;;;2.90;;
24715;SDS011;12822;50.124;8.678;2023-05-20T01:28:32;7.30;;;2.65;;
24715;SDS011;12822;50.124;8.678;2023-05-20T01:30:59;4.72;;;2.90;;
24715;SDS011;12822;50.124;8.678;2023-05-20T01:33:26;4.85;;;2.60;;
24715;SDS011;12822;50.124;8.678;2023-05-20T01:35:53;9.07;;;3.20;;
24715;SDS011;12822;50.124;8.678;2023-05-20T01:38:20;5.18;;;2.83;;
24715;SDS011;12822;50.124;8.678;2023-05-20T01:40:46;5.07;;;2.97;;
24715;SDS011;12822;50.124;8.678;2023-05-20T01:43:13;6.78;;;2.75;;
24715;SDS011;12822;50.124;8.678;2023-05-20T01:45:42;6.20;;;2.70;;
24715;SDS011;12822;50.124;8.678;2023-05-20T01:48:11;6.03;;;3.08;;
24715;SDS011;12822;50.124;8.678;2023-05-20T01:50:37;7.32;;;2.92;;
24715;SDS011;12822;50.124;8.678;2023-05-20T01:53:03;5.03;;;2.95;;
24715;SDS011;12822;50.124;8.678;2023-05-20T01:55:32;5.60;;;2.67;;
24715;SDS011;12822;50.124;8.678;2023-05-20T01:57:58;6.93;;;2.90;;
24715;SDS011;12822;50.124;8.678;2023-05-20T02:00:24;8.48;;;3.53;;
24715;SDS011;12822;50.124;8.678;2023-05-20T02:02:50;5.68;;;2.65;;
24715;SDS011;12822;50.124;8.678;2023-05-20T02:05:16;5.15;;;2.83;;
24715;SDS011;12822;50.124;8.678;2023-05-20T02:07:42;7.07;;;3.20;;
24715;SDS011;12822;50.124;8.678;2023-05-20T02:10:08;5.22;;;3.08;;
24715;SDS011;12822;50.124;8.678;2023-05-20T02:12:34;4.63;;;3.08;;
24715;SDS011;12822;50.124;8.678;2023-05-20T02:15:00;3.40;;;2.60;;
24715;SDS011;12822;50.124;8.678;2023-05-20T02:17:26;7.63;;;3.22;;
24715;SDS011;12822;50.124;8.678;2023-05-20T02:19:52;3.80;;;3.15;;
24715;SDS011;12822;50.124;8.678;2023-05-20T02:22:18;6.93;;;3.00;;
24715;SDS011;12822;50.124;8.678;2023-05-20T02:24:44;7.05;;;3.20;;
24715;SDS011;12822;50.124;8.678;2023-05-20T02:27:10;5.10;;;2.72;;
24715;SDS011;12822;50.124;8.678;2023-05-20T02:29:36;5.88;;;2.95;;
24715;SDS011;12822;50.124;8.678;2023-05-20T02:32:02;5.97;;;2.80;;
24715;SDS011;12822;50.124;8.678;2023-05-20T02:34:28;8.13;;;3.28;;
24715;SDS011;12822;50.124;8.678;2023-05-20T02:36:55;6.70;;;3.30;;
24715;SDS011;12822;50.124;8.678;2023-05-20T02:39:21;9.90;;;2.83;;
24715;SDS011;12822;50.124;8.678;2023-05-20T02:41:47;4.97;;;2.90;;
24715;SDS011;12822;50.124;8.678;2023-05-20T02:44:13;6.60;;;3.00;;
24715;SDS011;12822;50.124;8.678;2023-05-20T02:46:39;4.15;;;2.95;;
24715;SDS011;12822;50.124;8.678;2023-05-20T02:49:05;4.88;;;3.00;;
24715;SDS011;12822;50.124;8.678;2023-05-20T02:51:31;7.90;;;3.42;;
24715;SDS011;12822;50.124;8.678;2023-05-20T02:53:57;5.80;;;3.10;;
24715;SDS011;12822;50.124;8.678;2023-05-20T02:56:23;6.35;;;3.22;;
24715;SDS011;12822;50.124;8.678;2023-05-20T02:58:49;4.07;;;3.22;;
24715;SDS011;12822;50.124;8.678;2023-05-20T03:01:15;8.98;;;3.13;;
24715;SDS011;12822;50.124;8.678;2023-05-20T03:03:41;7.70;;;3.00;;
24715;SDS011;12822;50.124;8.678;2023-05-20T03:06:07;6.85;;;3.13;;
24715;SDS011;12822;50.124;8.678;2023-05-20T03:08:34;9.45;;;3.53;;
24715;SDS011;12822;50.124;8.678;2023-05-20T03:11:00;10.90;;;3.35;;
24715;SDS011;12822;50.124;8.678;2023-05-20T03:13:26;4.72;;;3.00;;
24715;SDS011;12822;50.124;8.678;2023-05-20T03:15:52;8.68;;;3.15;;
24715;SDS011;12822;50.124;8.678;2023-05-20T03:18:18;7.18;;;3.80;;
24715;SDS011;12822;50.124;8.678;2023-05-20T03:20:45;9.77;;;3.92;;
24715;SDS011;12822;50.124;8.678;2023-05-20T03:23:11;6.03;;;3.63;;
24715;SDS011;12822;50.124;8.678;2023-05-20T03:25:37;7.50;;;3.60;;
24715;SDS011;12822;50.124;8.678;2023-05-20T03:28:04;7.15;;;3.88;;
24715;SDS011;12822;50.124;8.678;2023-05-20T03:30:30;8.13;;;3.80;;
24715;SDS011;12822;50.124;8.678;2023-05-20T03:32:57;6.03;;;3.33;;
24715;SDS011;12822;50.124;8.678;2023-05-20T03:35:23;7.55;;;3.40;;
24715;SDS011;12822;50.124;8.678;2023-05-20T03:37:49;6.95;;;3.60;;
24715;SDS011;12822;50.124;8.678;2023-05-20T03:40:18;7.90;;;4.22;;
24715;SDS011;12822;50.124;8.678;2023-05-20T03:42:47;7.88;;;3.60;;
24715;SDS011;12822;50.124;8.678;2023-05-20T03:45:15;6.85;;;3.38;;
24715;SDS011;12822;50.124;8.678;2023-05-20T03:47:41;5.82;;;3.50;;
24715;SDS011;12822;50.124;8.678;2023-05-20T03:50:07;8.88;;;4.50;;
24715;SDS011;12822;50.124;8.678;2023-05-20T03:52:33;9.55;;;3.70;;
24715;SDS011;12822;50.124;8.678;2023-05-20T03:54:59;7.38;;;3.88;;
24715;SDS011;12822;50.124;8.678;2023-05-20T03:57:25;9.65;;;3.95;;
24715;SDS011;12822;50.124;8.678;2023-05-20T03:59:51;10.70;;;4.03;;
24715;SDS011;12822;50.124;8.678;2023-05-20T04:02:17;7.72;;;3.58;;
24715;SDS011;12822;50.124;8.678;2023-05-20T04:04:43;8.05;;;3.83;;
24715;SDS011;12822;50.124;8.678;2023-05-20T04:07:09;9.05;;;3.53;;
24715;SDS011;12822;50.124;8.678;2023-05-20T04:09:36;5.30;;;3.88;;
24715;SDS011;12822;50.124;8.678;2023-05-20T04:12:03;7.93;;;4.13;;
24715;SDS011;12822;50.124;8.678;2023-05-20T04:14:29;6.93;;;3.80;;
24715;SDS011;12822;50.124;8.678;2023-05-20T04:16:58;5.13;;;3.88;;
24715;SDS011;12822;50.124;8.678;2023-05-20T04:19:24;4.78;;;3.42;;
24715;SDS011;12822;50.124;8.678;2023-05-20T04:21:52;8.50;;;3.88;;
24715;SDS011;12822;50.124;8.678;2023-05-20T04:24:18;7.53;;;4.40;;
24715;SDS011;12822;50.124;8.678;2023-05-20T04:26:49;9.30;;;4.07;;
24715;SDS011;12822;50.124;8.678;2023-05-20T04:29:15;4.90;;;3.75;;
24715;SDS011;12822;50.124;8.678;2023-05-20T04:31:40;8.48;;;4.20;;
24715;SDS011;12822;50.124;8.678;2023-05-20T04:34:06;8.57;;;4.05;;
24715;SDS011;12822;50.124;8.678;2023-05-20T04:36:33;7.05;;;3.85;;
24715;SDS011;12822;50.124;8.678;2023-05-20T04:39:02;7.57;;;3.92;;
24715;SDS011;12822;50.124;8.678;2023-05-20T04:41:30;6.20;;;3.80;;
24715;SDS011;12822;50.124;8.678;2023-05-20T04:43:56;7.60;;;4.35;;
24715;SDS011;12822;50.124;8.678;2023-05-20T04:46:23;7.72;;;4.03;;
24715;SDS011;12822;50.124;8.678;2023-05-20T04:48:49;7.72;;;4.25;;
24715;SDS011;12822;50.124;8.678;2023-05-20T04:51:15;4.25;;;3.35;;
24715;SDS011;12822;50.124;8.678;2023-05-20T04:53:41;8.00;;;4.40;;
24715;SDS011;12822;50.124;8.678;2023-05-20T04:56:09;7.75;;;4.20;;
24715;SDS011;12822;50.124;8.678;2023-05-20T04:58:35;7.60;;;4.63;;
24715;SDS011;12822;50.124;8.678;2023-05-20T05:01:01;6.00;;;3.90;;
24715;SDS011;12822;50.124;8.678;2023-05-20T05:03:27;7.53;;;3.83;;
24715;SDS011;12822;50.124;8.678;2023-05-20T05:05:56;7.38;;;3.70;;
24715;SDS011;12822;50.124;8.678;2023-05-20T05:08:22;6.60;;;4.15;;
24715;SDS011;12822;50.124;8.678;2023-05-20T05:10:48;9.00;;;4.45;;
24715;SDS011;12822;50.124;8.678;2023-05-20T05:13:14;5.57;;;4.10;;
24715;SDS011;12822;50.124;8.678;2023-05-20T05:15:40;5.30;;;4.07;;
24715;SDS011;12822;50.124;8.678;2023-05-20T05:18:06;8.45;;;4.03;;
24715;SDS011;12822;50.124;8.678;2023-05-20T05:20:32;9.05;;;4.63;;
24715;SDS011;12822;50.124;8.678;2023-05-20T05:22:58;5.97;;;4.28;;
24715;SDS011;12822;50.124;8.678;2023-05-20T05:25:24;6.68;;;4.30;;
24715;SDS011;12822;50.124;8.678;2023-05-20T05:27:50;9.13;;;4.50;;
24715;SDS011;12822;50.124;8.678;2023-05-20T05:30:17;6.18;;;4.10;;
24715;SDS011;12822;50.124;8.678;2023-05-20T05:32:43;8.27;;;4.70;;
24715;SDS011;12822;50.124;8.678;2023-05-20T05:35:09;7.05;;;4.72;;
24715;SDS011;12822;50.124;8.678;2023-05-20T05:37:35;7.25;;;4.30;;
24715;SDS011;12822;50.124;8.678;2023-05-20T05:40:01;8.90;;;4.68;;
24715;SDS011;12822;50.124;8.678;2023-05-20T05:42:27;8.48;;;4.65;;
24715;SDS011;12822;50.124;8.678;2023-05-20T05:44:53;8.90;;;4.75;;
24715;SDS011;12822;50.124;8.678;2023-05-20T05:47:20;8.60;;;4.55;;
24715;SDS011;12822;50.124;8.678;2023-05-20T05:49:46;9.45;;;4.47;;
24715;SDS011;12822;50.124;8.678;2023-05-20T05:52:12;7.13;;;5.07;;
24715;SDS011;12822;50.124;8.678;2023-05-20T05:54:38;7.38;;;4.22;;
24715;SDS011;12822;50.124;8.678;2023-05-20T05:57:04;9.98;;;5.50;;
24715;SDS011;12822;50.124;8.678;2023-05-20T05:59:31;10.80;;;5.05;;
24715;SDS011;12822;50.124;8.678;2023-05-20T06:01:57;9.50;;;5.13;;
24715;SDS011;12822;50.124;8.678;2023-05-20T06:04:23;7.55;;;4.95;;
24715;SDS011;12822;50.124;8.678;2023-05-20T06:06:49;8.48;;;5.00;;
24715;SDS011;12822;50.124;8.678;2023-05-20T06:09:15;10.05;;;5.20;;
24715;SDS011;12822;50.124;8.678;2023-05-20T06:11:41;10.48;;;5.07;;
24715;SDS011;12822;50.124;8.678;2023-05-20T06:14:08;10.13;;;5.35;;
24715;SDS011;12822;50.124;8.678;2023-05-20T06:16:34;7.40;;;4.55;;
24715;SDS011;12822;50.124;8.678;2023-05-20T06:19:00;9.60;;;5.05;;
24715;SDS011;12822;50.124;8.678;2023-05-20T06:21:27;7.65;;;5.43;;
24715;SDS011;12822;50.124;8.678;2023-05-20T06:23:53;8.35;;;5.30;;
24715;SDS011;12822;50.124;8.678;2023-05-20T06:26:19;9.63;;;5.30;;
24715;SDS011;12822;50.124;8.678;2023-05-20T06:28:45;9.57;;;5.32;;
24715;SDS011;12822;50.124;8.678;2023-05-20T06:31:11;12.07;;;5.53;;
24715;SDS011;12822;50.124;8.678;2023-05-20T06:33:37;9.60;;;5.15;;
24715;SDS011;12822;50.124;8.678;2023-05-20T06:36:03;9.13;;;5.70;;
24715;SDS011;12822;50.124;8.678;2023-05-20T06:38:29;9.23;;;5.72;;
24715;SDS011;12822;50.124;8.678;2023-05-20T06:40:55;8.00;;;5.63;;
24715;SDS011;12822;50.124;8.678;2023-05-20T06:43:21;8.00;;;5.35;;
24715;SDS011;12822;50.124;8.678;2023-05-20T06:45:47;8.38;;;5.20;;
24715;SDS011;12822;50.124;8.678;2023-05-20T06:48:14;12.57;;;6.20;;
24715;SDS011;12822;50.124;8.678;2023-05-20T06:50:40;9.00;;;5.72;;
24715;SDS011;12822;50.124;8.678;2023-05-20T06:53:06;9.20;;;5.72;;
24715;SDS011;12822;50.124;8.678;2023-05-20T06:55:32;13.07;;;6.10;;
24715;SDS011;12822;50.124;8.678;2023-05-20T06:57:58;9.52;;;6.03;;
24715;SDS011;12822;50.124;8.678;2023-05-20T07:00:24;10.23;;;6.28;;
24715;SDS011;12822;50.124;8.678;2023-05-20T07:02:50;9.85;;;5.38;;
24715;SDS011;12822;50.124;8.678;2023-05-20T07:05:16;12.13;;;5.72;;
24715;SDS011;12822;50.124;8.678;2023-05-20T07:07:42;11.93;;;5.90;;
24715;SDS011;12822;50.124;8.678;2023-05-20T07:10:08;8.85;;;6.32;;
24715;SDS011;12822;50.124;8.678;2023-05-20T07:12:34;11.82;;;6.40;;
24715;SDS011;12822;50.124;8.678;2023-05-20T07:15:00;12.05;;;6.43;;
24715;SDS011;12822;50.124;8.678;2023-05-20T07:17:26;9.23;;;6.03;;
24715;SDS011;12822;50.124;8.678;2023-05-20T07:19:53;11.02;;;6.50;;
24715;SDS011;12822;50.124;8.678;2023-05-20T07:22:20;15.45;;;6.50;;
24715;SDS011;12822;50.124;8.678;2023-05-20T07:24:46;12.30;;;6.65;;
24715;SDS011;12822;50.124;8.678;2023-05-20T07:27:12;8.85;;;6.65;;
24715;SDS011;12822;50.124;8.678;2023-05-20T07:29:38;9.93;;;6.35;;
24715;SDS011;12822;50.124;8.678;2023-05-20T07:32:04;12.07;;;6.85;;
24715;SDS011;12822;50.124;8.678;2023-05-20T07:34:30;9.82;;;6.40;;
24715;SDS011;12822;50.124;8.678;2023-05-20T07:36:57;11.30;;;6.68;;
24715;SDS011;12822;50.124;8.678;2023-05-20T07:39:23;11.38;;;6.20;;
24715;SDS011;12822;50.124;8.678;2023-05-20T07:41:52;10.80;;;6.65;;
24715;SDS011;12822;50.124;8.678;2023-05-20T07:44:18;17.90;;;7.50;;
24715;SDS011;12822;50.124;8.678;2023-05-20T07:46:46;9.05;;;6.22;;
24715;SDS011;12822;50.124;8.678;2023-05-20T07:49:12;11.13;;;6.97;;
24715;SDS011;12822;50.124;8.678;2023-05-20T07:51:38;14.18;;;6.82;;
24715;SDS011;12822;50.124;8.678;2023-05-20T07:54:04;13.57;;;6.35;;
24715;SDS011;12822;50.124;8.678;2023-05-20T07:56:30;12.93;;;6.15;;
24715;SDS011;12822;50.124;8.678;2023-05-20T07:58:57;10.75;;;6.72;;
24715;SDS011;12822;50.124;8.678;2023-05-20T08:01:27;10.90;;;6.63;;
24715;SDS011;12822;50.124;8.678;2023-05-20T08:03:53;12.70;;;7.38;;
24715;SDS011;12822;50.124;8.678;2023-05-20T08:06:19;9.85;;;6.43;;
24715;SDS011;12822;50.124;8.678;2023-05-20T08:08:45;11.85;;;6.70;;
24715;SDS011;12822;50.124;8.678;2023-05-20T08:11:12;9.75;;;6.13;;
24715;SDS011;12822;50.124;8.678;2023-05-20T08:13:38;12.02;;;7.55;;
24715;SDS011;12822;50.124;8.678;2023-05-20T08:16:04;14.80;;;6.93;;
24715;SDS011;12822;50.124;8.678;2023-05-20T08:18:31;10.32;;;6.68;;
24715;SDS011;12822;50.124;8.678;2023-05-20T08:21:00;14.23;;;6.80;;
24715;SDS011;12822;50.124;8.678;2023-05-20T08:23:26;8.13;;;5.97;;
24715;SDS011;12822;50.124;8.678;2023-05-20T08:25:52;8.80;;;5.85;;
24715;SDS011;12822;50.124;8.678;2023-05-20T08:28:18;9.00;;;6.35;;
24715;SDS011;12822;50.124;8.678;2023-05-20T08:30:44;7.95;;;5.95;;
24715;SDS011;12822;50.124;8.678;2023-05-20T08:33:12;8.20;;;6.18;;
24715;SDS011;12822;50.124;8.678;2023-05-20T08:35:38;9.65;;;6.35;;
24715;SDS011;12822;50.124;8.678;2023-05-20T08:38:05;9.63;;;6.38;;
24715;SDS011;12822;50.124;8.678;2023-05-20T08:40:33;7.78;;;6.53;;
24715;SDS011;12822;50.124;8.678;2023-05-20T08:42:59;9.68;;;6.53;;
24715;SDS011;12822;50.124;8.678;2023-05-20T08:45:26;8.70;;;6.38;;
24715;SDS011;12822;50.124;8.678;2023-05-20T08:47:52;9.10;;;6.15;;
24715;SDS011;12822;50.124;8.678;2023-05-20T08:50:18;9.10;;;6.07;;
24715;SDS011;12822;50.124;8.678;2023-05-20T08:52:46;8.95;;;6.03;;
24715;SDS011;12822;50.124;8.678;2023-05-20T08:57:51;10.68;;;6.75;;
24715;SDS011;12822;50.124;8.678;2023-05-20T09:00:18;8.82;;;6.60;;
24715;SDS011;12822;50.124;8.678;2023-05-20T09:02:45;12.93;;;7.18;;
24715;SDS011;12822;50.124;8.678;2023-05-20T09:05:11;10.00;;;6.55;;
24715;SDS011;12822;50.124;8.678;2023-05-20T09:07:38;10.80;;;6.53;;
24715;SDS011;12822;50.124;8.678;2023-05-20T09:10:06;11.32;;;7.20;;
24715;SDS011;12822;50.124;8.678;2023-05-20T09:12:33;10.23;;;7.45;;
24715;SDS011;12822;50.124;8.678;2023-05-20T09:14:59;12.38;;;7.75;;
24715;SDS011;12822;50.124;8.678;2023-05-20T09:17:25;9.00;;;7.00;;
24715;SDS011;12822;50.124;8.678;2023-05-20T09:19:52;9.00;;;7.45;;
24715;SDS011;12822;50.124;8.678;2023-05-20T09:22:24;10.48;;;7.57;;
24715;SDS011;12822;50.124;8.678;2023-05-20T09:24:50;12.40;;;7.50;;
24715;SDS011;12822;50.124;8.678;2023-05-20T09:27:17;11.85;;;7.15;;
24715;SDS011;12822;50.124;8.678;2023-05-20T09:29:45;10.85;;;6.93;;
24715;SDS011;12822;50.124;8.678;2023-05-20T09:32:12;10.35;;;6.95;;
24715;SDS011;12822;50.124;8.678;2023-05-20T09:34:38;10.10;;;6.80;;
24715;SDS011;12822;50.124;8.678;2023-05-20T09:37:07;10.00;;;6.88;;
24715;SDS011;12822;50.124;8.678;2023-05-20T09:39:47;11.45;;;7.57;;
24715;SDS011;12822;50.124;8.678;2023-05-20T09:42:39;9.93;;;6.47;;
24715;SDS011;12822;50.124;8.678;2023-05-20T09:45:02;11.30;;;6.97;;
24715;SDS011;12822;50.124;8.678;2023-05-20T09:47:29;12.55;;;8.40;;
24715;SDS011;12822;50.124;8.678;2023-05-20T09:49:55;11.32;;;7.43;;
24715;SDS011;12822;50.124;8.678;2023-05-20T09:52:22;11.20;;;7.53;;
24715;SDS011;12822;50.124;8.678;2023-05-20T09:54:48;10.13;;;7.28;;
24715;SDS011;12822;50.124;8.678;2023-05-20T09:57:15;10.63;;;7.55;;
24715;SDS011;12822;50.124;8.678;2023-05-20T09:59:41;11.82;;;7.45;;
24715;SDS011;12822;50.124;8.678;2023-05-20T10:02:07;9.00;;;6.85;;
24715;SDS011;12822;50.124;8.678;2023-05-20T10:04:34;9.05;;;7.03;;
24715;SDS011;12822;50.124;8.678;2023-05-20T10:07:25;9.32;;;6.70;;
24715;SDS011;12822;50.124;8.678;2023-05-20T10:09:55;9.55;;;7.07;;
24715;SDS011;12822;50.124;8.678;2023-05-20T10:12:32;14.55;;;6.57;;
24715;SDS011;12822;50.124;8.678;2023-05-20T10:15:03;9.60;;;6.47;;
24715;SDS011;12822;50.124;8.678;2023-05-20T10:17:36;8.30;;;6.60;;
24715;SDS011;12822;50.124;8.678;2023-05-20T10:20:05;11.77;;;7.28;;
24715;SDS011;12822;50.124;8.678;2023-05-20T10:22:33;10.05;;;7.43;;
24715;SDS011;12822;50.124;8.678;2023-05-20T10:24:59;9.15;;;7.47;;
24715;SDS011;12822;50.124;8.678;2023-05-20T10:27:26;8.55;;;6.95;;
24715;SDS011;12822;50.124;8.678;2023-05-20T10:29:53;9.90;;;6.95;;
24715;SDS011;12822;50.124;8.678;2023-05-20T10:32:29;9.10;;;6.47;;
24715;SDS011;12822;50.124;8.678;2023-05-20T10:35:00;8.90;;;6.68;;
24715;SDS011;12822;50.124;8.678;2023-05-20T10:37:29;8.32;;;6.75;;
24715;SDS011;12822;50.124;8.678;2023-05-20T10:40:05;11.52;;;7.28;;
24715;SDS011;12822;50.124;8.678;2023-05-20T10:42:32;10.60;;;6.97;;
24715;SDS011;12822;50.124;8.678;2023-05-20T10:44:58;10.25;;;6.28;;
24715;SDS011;12822;50.124;8.678;2023-05-20T10:47:24;8.30;;;6.20;;
24715;SDS011;12822;50.124;8.678;2023-05-20T10:49:50;9.25;;;5.90;;
24715;SDS011;12822;50.124;8.678;2023-05-20T10:52:16;8.50;;;6.55;;
24715;SDS011;12822;50.124;8.678;2023-05-20T10:54:46;7.95;;;6.22;;
24715;SDS011;12822;50.124;8.678;2023-05-20T10:57:13;7.83;;;6.40;;
24715;SDS011;12822;50.124;8.678;2023-05-20T10:59:39;6.70;;;5.28;;
24715;SDS011;12822;50.124;8.678;2023-05-20T11:02:06;7.07;;;5.65;;
24715;SDS011;12822;50.124;8.678;2023-05-20T11:04:32;7.18;;;4.60;;
24715;SDS011;12822;50.124;8.678;2023-05-20T11:06:59;5.95;;;5.13;;
24715;SDS011;12822;50.124;8.678;2023-05-20T11:09:25;7.07;;;5.10;;
24715;SDS011;12822;50.124;8.678;2023-05-20T11:11:51;5.97;;;5.20;;
24715;SDS011;12822;50.124;8.678;2023-05-20T11:14:18;6.43;;;5.60;;
24715;SDS011;12822;50.124;8.678;2023-05-20T11:16:44;8.00;;;5.63;;
24715;SDS011;12822;50.124;8.678;2023-05-20T11:19:13;8.05;;;5.68;;
24715;SDS011;12822;50.124;8.678;2023-05-20T11:21:43;6.70;;;6.00;;
24715;SDS011;12822;50.124;8.678;2023-05-20T11:24:10;6.72;;;5.50;;
24715;SDS011;12822;50.124;8.678;2023-05-20T11:26:36;5.63;;;4.88;;
24715;SDS011;12822;50.124;8.678;2023-05-20T11:29:02;8.27;;;5.35;;
24715;SDS011;12822;50.124;8.678;2023-05-20T11:31:29;8.80;;;5.70;;
24715;SDS011;12822;50.124;8.678;2023-05-20T11:33:55;7.63;;;5.03;;
24715;SDS011;12822;50.124;8.678;2023-05-20T11:36:21;8.30;;;5.70;;
24715;SDS011;12822;50.124;8.678;2023-05-20T11:38:47;6.40;;;5.75;;
24715;SDS011;12822;50.124;8.678;2023-05-20T11:41:13;6.65;;;5.75;;
24715;SDS011;12822;50.124;8.678;2023-05-20T11:43:39;8.02;;;6.00;;
24715;SDS011;12822;50.124;8.678;2023-05-20T11:46:06;6.35;;;5.38;;
24715;SDS011;12822;50.124;8.678;2023-05-20T11:48:32;6.45;;;5.28;;
24715;SDS011;12822;50.124;8.678;2023-05-20T11:50:58;7.82;;;5.90;;
24715;SDS011;12822;50.124;8.678;2023-05-20T11:53:24;7.57;;;5.40;;
24715;SDS011;12822;50.124;8.678;2023-05-20T11:55:54;8.70;;;5.32;;
24715;SDS011;12822;50.124;8.678;2023-05-20T11:58:21;6.10;;;5.38;;
24715;SDS011;12822;50.124;8.678;2023-05-20T12:00:48;6.55;;;5.25;;
24715;SDS011;12822;50.124;8.678;2023-05-20T12:03:14;7.95;;;5.68;;
24715;SDS011;12822;50.124;8.678;2023-05-20T12:05:40;5.82;;;5.25;;
24715;SDS011;12822;50.124;8.678;2023-05-20T12:08:07;7.00;;;5.50;;
24715;SDS011;12822;50.124;8.678;2023-05-20T12:10:33;7.97;;;5.82;;
24715;SDS011;12822;50.124;8.678;2023-05-20T12:12:59;8.75;;;5.43;;
24715;SDS011;12822;50.124;8.678;2023-05-20T12:15:25;9.85;;;6.38;;
24715;SDS011;12822;50.124;8.678;2023-05-20T12:17:51;8.35;;;5.28;;
24715;SDS011;12822;50.124;8.678;2023-05-20T12:20:20;7.72;;;6.05;;
24715;SDS011;12822;50.124;8.678;2023-05-20T12:22:46;5.90;;;5.00;;
24715;SDS011;12822;50.124;8.678;2023-05-20T12:25:13;7.28;;;5.30;;
24715;SDS011;12822;50.124;8.678;2023-05-20T12:27:40;6.70;;;6.10;;
24715;SDS011;12822;50.124;8.678;2023-05-20T12:30:06;7.85;;;6.53;;
24715;SDS011;12822;50.124;8.678;2023-05-20T12:32:34;6.78;;;6.07;;
24715;SDS011;12822;50.124;8.678;2023-05-20T12:35:00;7.45;;;6.03;;
24715;SDS011;12822;50.124;8.678;2023-05-20T12:37:26;8.18;;;5.97;;
24715;SDS011;12822;50.124;8.678;2023-05-20T12:39:52;8.63;;;6.38;;
24715;SDS011;12822;50.124;8.678;2023-05-20T12:42:18;7.45;;;5.60;;
24715;SDS011;12822;50.124;8.678;2023-05-20T12:44:44;9.48;;;6.78;;
24715;SDS011;12822;50.124;8.678;2023-05-20T12:47:10;11.77;;;6.20;;
24715;SDS011;12822;50.124;8.678;2023-05-20T12:49:36;7.57;;;6.50;;
24715;SDS011;12822;50.124;8.678;2023-05-20T12:52:02;9.38;;;6.10;;
24715;SDS011;12822;50.124;8.678;2023-05-20T12:54:28;10.95;;;6.90;;
24715;SDS011;12822;50.124;8.678;2023-05-20T12:56:54;9.10;;;5.65;;
24715;SDS011;12822;50.124;8.678;2023-05-20T12:59:20;7.18;;;5.78;;
24715;SDS011;12822;50.124;8.678;2023-05-20T13:01:46;7.20;;;6.00;;
24715;SDS011;12822;50.124;8.678;2023-05-20T13:04:12;7.45;;;6.00;;
24715;SDS011;12822;50.124;8.678;2023-05-20T13:06:39;8.90;;;6.55;;
24715;SDS011;12822;50.124;8.678;2023-05-20T13:09:08;8.93;;;6.00;;
24715;SDS011;12822;50.124;8.678;2023-05-20T13:11:34;7.95;;;7.13;;
24715;SDS011;12822;50.124;8.678;2023-05-20T13:14:00;10.77;;;6.85;;
24715;SDS011;12822;50.124;8.678;2023-05-20T13:16:26;8.57;;;6.63;;
24715;SDS011;12822;50.124;8.678;2023-05-20T13:18:52;9.93;;;6.55;;
24715;SDS011;12822;50.124;8.678;2023-05-20T13:21:18;8.38;;;7.38;;
24715;SDS011;12822;50.124;8.678;2023-05-20T13:23:44;7.53;;;6.20;;
24715;SDS011;12822;50.124;8.678;2023-05-20T13:26:10;7.75;;;6.90;;
24715;SDS011;12822;50.124;8.678;2023-05-20T13:28:36;10.82;;;7.15;;
24715;SDS011;12822;50.124;8.678;2023-05-20T13:31:03;10.90;;;7.28;;
24715;SDS011;12822;50.124;8.678;2023-05-20T13:33:29;7.55;;;6.75;;
24715;SDS011;12822;50.124;8.678;2023-05-20T13:35:55;9.95;;;6.93;;
24715;SDS011;12822;50.124;8.678;2023-05-20T13:38:21;9.55;;;7.47;;
24715;SDS011;12822;50.124;8.678;2023-05-20T13:40:47;9.18;;;7.80;;
24715;SDS011;12822;50.124;8.678;2023-05-20T13:43:14;9.35;;;7.53;;
24715;SDS011;12822;50.124;8.678;2023-05-20T13:45:41;10.38;;;7.63;;
24715;SDS011;12822;50.124;8.678;2023-05-20T13:48:07;8.75;;;7.47;;
24715;SDS011;12822;50.124;8.678;2023-05-20T13:50:33;9.02;;;7.78;;
24715;SDS011;12822;50.124;8.678;2023-05-20T13:52:58;8.40;;;7.45;;
24715;SDS011;12822;50.124;8.678;2023-05-20T13:55:25;9.10;;;8.20;;
24715;SDS011;12822;50.124;8.678;2023-05-20T13:57:50;9.70;;;8.27;;
24715;SDS011;12822;50.124;8.678;2023-05-20T14:00:18;9.50;;;8.20;;
24715;SDS011;12822;50.124;8.678;2023-05-20T14:02:44;10.80;;;8.50;;
24715;SDS011;12822;50.124;8.678;2023-05-20T14:05:10;10.75;;;8.13;;
24715;SDS011;12822;50.124;8.678;2023-05-20T14:07:36;15.68;;;8.40;;
24715;SDS011;12822;50.124;8.678;2023-05-20T14:10:03;12.07;;;8.60;;
24715;SDS011;12822;50.124;8.678;2023-05-20T14:12:29;11.63;;;8.20;;
24715;SDS011;12822;50.124;8.678;2023-05-20T14:14:55;10.32;;;8.25;;
24715;SDS011;12822;50.124;8.678;2023-05-20T14:17:21;10.05;;;8.40;;
24715;SDS011;12822;50.124;8.678;2023-05-20T14:19:47;10.18;;;8.40;;
24715;SDS011;12822;50.124;8.678;2023-05-20T14:22:13;13.93;;;7.95;;
24715;SDS011;12822;50.124;8.678;2023-05-20T14:24:39;9.80;;;7.80;;
24715;SDS011;12822;50.124;8.678;2023-05-20T14:27:06;9.95;;;7.97;;
24715;SDS011;12822;50.124;8.678;2023-05-20T14:29:32;11.75;;;8.52;;
24715;SDS011;12822;50.124;8.678;2023-05-20T14:31:58;15.00;;;9.30;;
24715;SDS011;12822;50.124;8.678;2023-05-20T14:34:25;10.32;;;8.48;;
24715;SDS011;12822;50.124;8.678;2023-05-20T14:36:51;12.25;;;8.55;;
24715;SDS011;12822;50.124;8.678;2023-05-20T14:39:17;16.88;;;9.57;;
24715;SDS011;12822;50.124;8.678;2023-05-20T14:41:43;12.20;;;8.50;;
24715;SDS011;12822;50.124;8.678;2023-05-20T14:44:09;11.68;;;8.52;;